Time;durP1;ratioP1;P1;durP2;ratioP2;P2;SDS_P1;SDS_P2;PMS_P1;PMS_P2;Temp;Humidity;BMP_temperature;BMP_pressure;BME280_temperature;BME280_humidity;BME280_pressure;Samples;Min_cycle;Max_cycle;Signal;HPM_P1;HPM_P2
2023/05/06 00:00:25;;;;;;;55.65;10.45;;;20.50;83.60;;;;;;4986125;28;20058;-58
2023/05/06 00:02:51;;;;;;;60.63;10.63;;;20.50;83.60;;;;;;4987607;28;20026;-58
2023/05/06 00:05:19;;;;;;;41.30;9.25;;;20.40;83.60;;;;;;4987475;28;20086;-58
2023/05/06 00:07:45;;;;;;;43.70;10.10;;;20.40;83.60;;;;;;4987547;28;20289;-59
2023/05/06 00:10:11;;;;;;;44.95;11.02;;;20.40;83.80;;;;;;4986498;28;20046;-59
2023/05/06 00:12:36;;;;;;;39.42;9.55;;;20.40;83.70;;;;;;4986263;28;20050;-58
2023/05/06 00:15:02;;;;;;;48.45;10.15;;;20.40;83.70;;;;;;4985449;28;20314;-58
2023/05/06 00:17:28;;;;;;;52.47;9.85;;;20.30;84.30;;;;;;4985709;28;20042;-58
2023/05/06 00:19:54;;;;;;;46.83;10.27;;;20.30;83.70;;;;;;4985041;28;20039;-58
2023/05/06 00:22:20;;;;;;;35.13;8.60;;;20.30;84.40;;;;;;4969157;28;20062;-58
2023/05/06 00:24:46;;;;;;;45.70;10.40;;;20.30;83.80;;;;;;4985664;28;20082;-58
2023/05/06 00:27:12;;;;;;;36.88;9.40;;;20.30;83.90;;;;;;4987247;28;20049;-58
2023/05/06 00:29:37;;;;;;;39.13;9.77;;;20.30;83.90;;;;;;4985405;28;20041;-58
2023/05/06 00:32:03;;;;;;;38.30;8.82;;;20.30;83.90;;;;;;4984751;28;20045;-58
2023/05/06 00:34:28;;;;;;;27.27;7.80;;;20.30;83.80;;;;;;4986447;28;20034;-58
2023/05/06 00:36:54;;;;;;;33.83;8.68;;;20.30;83.80;;;;;;4968693;28;20034;-59
2023/05/06 00:39:20;;;;;;;46.83;8.77;;;20.30;83.90;;;;;;4970619;28;20467;-58
2023/05/06 00:41:45;;;;;;;41.78;8.60;;;20.20;83.80;;;;;;4985858;28;20041;-58
2023/05/06 00:44:11;;;;;;;29.65;8.27;;;20.20;83.80;;;;;;5001855;28;20027;-58
2023/05/06 00:46:37;;;;;;;28.90;7.65;;;20.20;83.80;;;;;;4986572;28;20463;-58
2023/05/06 00:49:02;;;;;;;31.63;8.50;;;20.20;84.50;;;;;;4984626;28;20034;-59
2023/05/06 00:51:28;;;;;;;35.20;8.25;;;20.20;84.00;;;;;;4985629;28;20055;-59
2023/05/06 00:53:53;;;;;;;22.95;7.75;;;20.20;84.00;;;;;;4984600;28;20030;-58
2023/05/06 00:56:19;;;;;;;35.10;7.90;;;20.20;84.00;;;;;;4999798;28;20039;-59
2023/05/06 00:58:45;;;;;;;32.33;7.72;;;20.10;84.00;;;;;;4985317;28;20074;-58
2023/05/06 01:01:11;;;;;;;35.63;7.75;;;20.10;84.10;;;;;;4986595;28;20031;-58
2023/05/06 01:03:36;;;;;;;36.22;7.82;;;20.20;84.10;;;;;;4984669;28;20053;-58
2023/05/06 01:06:05;;;;;;;30.23;7.65;;;20.10;84.00;;;;;;4984438;28;20039;-59
2023/05/06 01:08:54;;;;;;;27.50;7.25;;;20.10;83.90;;;;;;4984911;28;20018;-59
2023/05/06 01:11:37;;;;;;;28.90;6.85;;;20.10;84.10;;;;;;4984573;28;20428;-58
2023/05/06 01:14:39;;;;;;;30.67;7.05;;;20.10;84.00;;;;;;4987457;28;20027;-58
2023/05/06 01:17:07;;;;;;;24.85;6.80;;;20.10;84.20;;;;;;4986405;28;20124;-59
2023/05/06 01:19:42;;;;;;;22.10;6.82;;;20.10;84.10;;;;;;4985046;28;20058;-58
2023/05/06 01:22:08;;;;;;;29.58;7.07;;;20.10;84.10;;;;;;4985278;28;20023;-58
2023/05/06 01:24:43;;;;;;;30.00;7.32;;;20.10;84.20;;;;;;4968770;28;20038;-58
2023/05/06 01:27:09;;;;;;;27.10;7.05;;;20.10;84.20;;;;;;4985102;28;20440;-58
2023/05/06 01:29:36;;;;;;;26.90;6.93;;;20.00;84.20;;;;;;4985305;28;20086;-58
2023/05/06 01:32:32;;;;;;;22.98;6.35;;;20.00;84.20;;;;;;4985131;28;20019;-58
2023/05/06 01:35:20;;;;;;;;;;;20.00;84.20;;;;;;4986593;28;20039;-59
2023/05/06 01:38:05;;;;;;;21.83;6.53;;;20.00;84.30;;;;;;5001242;28;19922;-58
2023/05/06 01:40:30;;;;;;;21.77;6.43;;;20.00;84.50;;;;;;4984941;28;20031;-58
2023/05/06 01:42:56;;;;;;;23.40;6.47;;;19.90;84.50;;;;;;4984918;28;20031;-58
2023/05/06 01:45:22;;;;;;;30.88;6.85;;;19.90;84.40;;;;;;4984829;28;20031;-58
2023/05/06 01:47:47;;;;;;;25.23;6.40;;;19.90;84.30;;;;;;4983860;28;20030;-58
2023/05/06 01:50:13;;;;;;;26.70;6.03;;;19.90;84.40;;;;;;4983719;28;20095;-58
2023/05/06 01:52:39;;;;;;;20.45;5.65;;;19.90;84.50;;;;;;4983602;28;20031;-59
2023/05/06 01:55:05;;;;;;;13.50;5.95;;;19.90;84.40;;;;;;4984415;28;20046;-58
2023/05/06 01:57:30;;;;;;;19.23;5.88;;;19.90;84.50;;;;;;4983708;28;20034;-58
2023/05/06 01:59:56;;;;;;;23.25;5.45;;;19.90;84.50;;;;;;4984147;28;20125;-58
2023/05/06 02:02:22;;;;;;;17.45;5.95;;;19.90;84.50;;;;;;4985595;28;20073;-59
2023/05/06 02:04:49;;;;;;;17.98;5.53;;;19.90;84.60;;;;;;4985243;28;20038;-54
2023/05/06 02:07:14;;;;;;;16.27;5.35;;;19.90;84.50;;;;;;4983126;28;20037;-55
2023/05/06 02:09:40;;;;;;;17.73;6.07;;;19.90;84.60;;;;;;4985130;28;20039;-54
2023/05/06 02:12:06;;;;;;;19.45;5.22;;;19.90;84.60;;;;;;4985560;28;20039;-54
2023/05/06 02:14:31;;;;;;;15.05;5.70;;;19.90;84.60;;;;;;4982165;28;20054;-54
2023/05/06 02:16:57;;;;;;;22.05;5.50;;;19.80;84.60;;;;;;4982526;28;20023;-54
2023/05/06 02:19:23;;;;;;;19.60;5.57;;;19.80;84.60;;;;;;4983969;28;20031;-54
2023/05/06 02:21:48;;;;;;;24.45;6.93;;;19.80;84.60;;;;;;4984888;28;20069;-54
2023/05/06 02:24:14;;;;;;;16.85;6.13;;;19.80;84.70;;;;;;4983465;28;20027;-54
2023/05/06 02:26:39;;;;;;;26.63;7.20;;;19.80;84.80;;;;;;4983995;28;20192;-55
2023/05/06 02:29:05;;;;;;;23.17;6.93;;;19.80;84.80;;;;;;4964243;28;20114;-54
2023/05/06 02:31:31;;;;;;;14.82;6.90;;;19.80;84.70;;;;;;4965396;29;20042;-54
2023/05/06 02:33:56;;;;;;;24.23;7.00;;;19.80;84.60;;;;;;4976160;28;20118;-54
2023/05/06 02:36:22;;;;;;;17.17;6.00;;;19.80;84.80;;;;;;4983859;28;20054;-54
2023/05/06 02:38:47;;;;;;;18.58;6.03;;;19.80;84.80;;;;;;4985396;28;20106;-54
2023/05/06 02:41:13;;;;;;;13.57;5.78;;;19.70;84.80;;;;;;4968180;28;20039;-54
2023/05/06 02:43:38;;;;;;;23.73;6.93;;;19.70;84.60;;;;;;4983943;28;20081;-54
2023/05/06 02:46:04;;;;;;;16.02;5.47;;;19.70;84.70;;;;;;4985297;28;20035;-54
2023/05/06 02:48:29;;;;;;;16.77;5.93;;;19.70;84.70;;;;;;4984015;28;20077;-54
2023/05/06 02:50:55;;;;;;;20.30;5.50;;;19.70;84.70;;;;;;4983958;28;20058;-54
2023/05/06 02:53:20;;;;;;;20.10;5.97;;;19.70;84.70;;;;;;4983872;28;20023;-54
2023/05/06 02:55:46;;;;;;;12.95;5.90;;;19.70;84.80;;;;;;4964208;28;20099;-54
2023/05/06 02:58:11;;;;;;;15.95;6.28;;;19.70;84.80;;;;;;4970133;28;20027;-55
2023/05/06 03:00:37;;;;;;;19.10;6.80;;;19.70;84.90;;;;;;4986504;28;20039;-54
2023/05/06 03:03:02;;;;;;;21.80;7.32;;;19.70;84.90;;;;;;4986406;28;20065;-54
2023/05/06 03:05:28;;;;;;;20.65;6.63;;;19.60;84.80;;;;;;4988574;28;20115;-54
2023/05/06 03:07:54;;;;;;;14.55;5.55;;;19.60;84.80;;;;;;4987356;28;20035;-54
2023/05/06 03:10:19;;;;;;;14.85;5.70;;;19.60;84.80;;;;;;4987930;28;20031;-54
2023/05/06 03:12:45;;;;;;;16.88;5.70;;;19.60;84.90;;;;;;4986255;28;20031;-54
2023/05/06 03:15:10;;;;;;;14.32;5.30;;;19.60;85.00;;;;;;5002835;28;20089;-54
2023/05/06 03:17:36;;;;;;;13.73;5.85;;;19.60;85.10;;;;;;5003087;28;20038;-55
2023/05/06 03:20:02;;;;;;;19.58;5.72;;;19.60;85.20;;;;;;4985685;28;20031;-54
2023/05/06 03:22:28;;;;;;;12.55;5.40;;;19.60;85.20;;;;;;4987062;28;20034;-54
2023/05/06 03:24:53;;;;;;;9.38;5.03;;;19.60;85.30;;;;;;4988245;28;20106;-54
2023/05/06 03:27:19;;;;;;;13.15;5.47;;;19.60;86.10;;;;;;4986846;28;20046;-54
2023/05/06 03:29:44;;;;;;;13.13;4.85;;;19.50;85.40;;;;;;5002675;28;20073;-54
2023/05/06 03:32:10;;;;;;;14.18;5.47;;;19.60;85.50;;;;;;4987875;28;20038;-54
2023/05/06 03:34:35;;;;;;;10.05;4.93;;;19.50;85.50;;;;;;4987815;28;20194;-54
2023/05/06 03:37:01;;;;;;;14.30;4.95;;;19.50;85.60;;;;;;4987097;28;20038;-54
2023/05/06 03:39:26;;;;;;;14.40;5.40;;;19.50;85.70;;;;;;4987233;28;20023;-54
2023/05/06 03:41:52;;;;;;;10.80;5.25;;;19.40;85.70;;;;;;4987237;28;20031;-54
2023/05/06 03:44:18;;;;;;;10.88;4.95;;;19.50;85.90;;;;;;4967793;28;20065;-54
2023/05/06 03:46:43;;;;;;;10.88;5.00;;;19.40;85.80;;;;;;4987868;28;20031;-54
2023/05/06 03:49:09;;;;;;;13.45;5.10;;;19.40;86.00;;;;;;4987671;28;20035;-54
2023/05/06 03:51:34;;;;;;;9.75;4.55;;;19.40;86.00;;;;;;4970456;28;20051;-54
2023/05/06 03:54:00;;;;;;;13.02;4.53;;;19.40;86.10;;;;;;4970438;28;20093;-54
2023/05/06 03:56:26;;;;;;;10.55;4.35;;;19.40;86.20;;;;;;4985962;28;20129;-54
2023/05/06 03:58:53;;;;;;;11.55;4.88;;;19.40;86.30;;;;;;4986286;28;20034;-54
2023/05/06 04:01:19;;;;;;;11.13;4.88;;;19.40;86.30;;;;;;4987887;28;20027;-54
2023/05/06 04:03:44;;;;;;;16.95;5.30;;;19.40;86.20;;;;;;4986614;28;20027;-54
2023/05/06 04:06:10;;;;;;;9.27;4.43;;;19.40;86.30;;;;;;4986642;28;20090;-54
2023/05/06 04:08:35;;;;;;;11.25;4.93;;;19.40;86.40;;;;;;4971940;28;20027;-55
2023/05/06 04:11:05;;;;;;;11.30;4.72;;;19.30;86.40;;;;;;4983519;28;20027;-54
2023/05/06 04:13:30;;;;;;;13.93;4.78;;;19.30;86.50;;;;;;4969877;28;20035;-54
2023/05/06 04:15:56;;;;;;;14.85;4.95;;;19.40;86.60;;;;;;4966490;28;20563;-54
2023/05/06 04:18:21;;;;;;;9.82;5.32;;;19.30;86.70;;;;;;4966487;28;20027;-54
2023/05/06 04:20:47;;;;;;;27.00;6.88;;;19.30;87.30;;;;;;4981611;28;20026;-54
2023/05/06 04:23:13;;;;;;;82.78;11.50;;;19.30;86.80;;;;;;4984887;28;20115;-54
2023/05/06 04:25:41;;;;;;;19.27;7.03;;;19.30;86.90;;;;;;4987383;28;20054;-54
2023/05/06 04:28:10;;;;;;;16.30;6.18;;;19.30;86.90;;;;;;4986194;28;20054;-54
2023/05/06 04:30:35;;;;;;;25.75;7.63;;;19.30;86.90;;;;;;4984685;28;20118;-54
2023/05/06 04:33:02;;;;;;;20.35;7.50;;;19.30;87.00;;;;;;4985579;28;20121;-54
2023/05/06 04:35:28;;;;;;;36.78;7.35;;;19.30;87.10;;;;;;4986843;28;20035;-55
2023/05/06 04:37:55;;;;;;;27.20;7.32;;;19.30;87.20;;;;;;4985792;28;20037;-54
2023/05/06 04:40:22;;;;;;;26.42;7.63;;;19.30;87.20;;;;;;4984625;28;20034;-54
2023/05/06 04:42:47;;;;;;;22.85;7.85;;;19.30;87.20;;;;;;4965960;28;20020;-54
2023/05/06 04:45:13;;;;;;;19.85;7.43;;;19.20;87.10;;;;;;4985560;28;20086;-54
2023/05/06 04:47:39;;;;;;;17.63;7.07;;;19.30;87.20;;;;;;4984874;28;20066;-54
2023/05/06 04:50:04;;;;;;;23.48;6.97;;;19.30;87.40;;;;;;4986387;28;20038;-54
2023/05/06 04:52:30;;;;;;;21.85;6.78;;;19.30;87.40;;;;;;4986277;28;20050;-54
2023/05/06 04:54:56;;;;;;;23.48;6.40;;;19.20;87.20;;;;;;4984847;28;20051;-54
2023/05/06 04:57:22;;;;;;;22.73;7.15;;;19.20;87.20;;;;;;4985833;28;20403;-55
2023/05/06 04:59:47;;;;;;;23.52;5.70;;;19.30;87.30;;;;;;5017910;28;20391;-54
2023/05/06 05:02:13;;;;;;;27.13;6.10;;;19.20;87.40;;;;;;4985247;28;20383;-54
2023/05/06 05:04:38;;;;;;;23.60;6.05;;;19.20;87.40;;;;;;4984947;28;20046;-54
2023/05/06 05:07:04;;;;;;;17.77;5.55;;;19.20;87.40;;;;;;4986578;28;20034;-54
2023/05/06 05:09:29;;;;;;;16.00;6.18;;;19.20;87.40;;;;;;4986381;28;20113;-54
2023/05/06 05:11:55;;;;;;;25.30;5.90;;;19.20;87.50;;;;;;4985432;28;20050;-54
2023/05/06 05:14:20;;;;;;;19.25;5.70;;;19.20;87.60;;;;;;4986248;28;20042;-54
2023/05/06 05:16:46;;;;;;;17.15;5.68;;;19.20;87.70;;;;;;4999585;28;20019;-54
2023/05/06 05:19:11;;;;;;;21.25;5.60;;;19.20;87.80;;;;;;4986114;28;20031;-54
2023/05/06 05:21:37;;;;;;;26.38;5.47;;;19.20;87.70;;;;;;4985682;28;20375;-52
2023/05/06 05:24:03;;;;;;;16.25;5.40;;;19.20;87.70;;;;;;4985195;28;20026;-54
2023/05/06 05:26:29;;;;;;;15.02;5.35;;;19.20;87.80;;;;;;4985074;28;20045;-54
2023/05/06 05:28:54;;;;;;;18.45;5.55;;;19.20;87.80;;;;;;4984849;28;20035;-55
2023/05/06 05:31:20;;;;;;;18.77;5.28;;;19.20;87.90;;;;;;4985926;28;20070;-54
2023/05/06 05:33:45;;;;;;;21.95;5.28;;;19.20;87.90;;;;;;5017555;28;20419;-54
2023/05/06 05:36:14;;;;;;;13.27;4.72;;;19.20;88.00;;;;;;4952204;28;20371;-54
2023/05/06 05:38:40;;;;;;;18.33;4.78;;;19.20;88.40;;;;;;4984258;28;20118;-54
2023/05/06 05:41:05;;;;;;;17.75;4.95;;;19.10;88.40;;;;;;4968483;28;20039;-54
2023/05/06 05:43:31;;;;;;;22.00;5.07;;;19.20;88.60;;;;;;4985976;28;20035;-54
2023/05/06 05:45:56;;;;;;;14.98;4.85;;;19.20;88.50;;;;;;4985545;28;20086;-54
2023/05/06 05:48:22;;;;;;;12.93;4.65;;;19.20;88.40;;;;;;4985831;28;20031;-54
2023/05/06 05:50:48;;;;;;;19.10;4.57;;;19.20;88.40;;;;;;4984826;28;20035;-54
2023/05/06 05:53:13;;;;;;;12.93;4.40;;;19.20;88.30;;;;;;4985165;28;20035;-54
2023/05/06 05:55:39;;;;;;;17.73;4.25;;;19.20;88.40;;;;;;4983658;28;20034;-54
2023/05/06 05:58:04;;;;;;;11.68;4.18;;;19.20;88.30;;;;;;4967905;28;20035;-54
2023/05/06 06:00:30;;;;;;;17.70;4.93;;;19.20;88.10;;;;;;4984471;28;20058;-54
2023/05/06 06:02:56;;;;;;;8.57;4.30;;;19.20;87.90;;;;;;4983498;28;20035;-54
2023/05/06 06:05:21;;;;;;;11.40;4.50;;;19.20;88.20;;;;;;4984679;28;20147;-54
2023/05/06 06:07:47;;;;;;;16.80;4.50;;;19.20;88.20;;;;;;4983095;28;20040;-54
2023/05/06 06:10:14;;;;;;;9.02;4.03;;;19.20;88.40;;;;;;4984219;28;20035;-54
2023/05/06 06:12:39;;;;;;;10.43;4.18;;;19.20;88.40;;;;;;4984398;28;20094;-54
2023/05/06 06:15:06;;;;;;;17.27;4.57;;;19.20;88.40;;;;;;4964639;28;20035;-54
2023/05/06 06:17:31;;;;;;;8.23;3.95;;;19.20;88.40;;;;;;4966205;28;20085;-54
2023/05/06 06:19:57;;;;;;;8.30;3.85;;;19.20;88.20;;;;;;4979617;28;20070;-54
2023/05/06 06:22:23;;;;;;;9.30;3.67;;;19.30;88.30;;;;;;4983700;28;20037;-54
2023/05/06 06:24:49;;;;;;;10.48;3.97;;;19.30;88.30;;;;;;4985667;28;20058;-54
2023/05/06 06:27:14;;;;;;;16.08;4.10;;;19.30;88.20;;;;;;4984109;28;20031;-54
2023/05/06 06:29:40;;;;;;;9.55;3.80;;;19.30;88.60;;;;;;4985565;28;20440;-54
2023/05/06 06:32:05;;;;;;;15.88;4.13;;;19.30;88.70;;;;;;4985918;28;20110;-54
2023/05/06 06:34:31;;;;;;;19.13;4.03;;;19.30;88.40;;;;;;4987415;28;20047;-54
2023/05/06 06:36:56;;;;;;;17.08;4.28;;;19.30;88.40;;;;;;5004398;28;20034;-54
2023/05/06 06:39:22;;;;;;;12.55;3.88;;;19.30;88.30;;;;;;4987494;28;20022;-54
2023/05/06 06:41:47;;;;;;;12.52;3.78;;;19.30;88.30;;;;;;4971221;28;20118;-54
2023/05/06 06:44:13;;;;;;;10.77;3.72;;;19.30;88.30;;;;;;4989046;28;20147;-55
2023/05/06 06:46:38;;;;;;;9.48;3.60;;;19.30;88.20;;;;;;4987958;28;20043;-54
2023/05/06 06:49:04;;;;;;;10.60;3.88;;;19.30;88.20;;;;;;4987475;28;20035;-54
2023/05/06 06:51:30;;;;;;;6.13;3.15;;;19.30;88.10;;;;;;4989127;28;20027;-54
2023/05/06 06:53:56;;;;;;;10.30;3.50;;;19.30;88.20;;;;;;4988895;28;20042;-54
2023/05/06 06:56:22;;;;;;;13.07;3.22;;;19.30;88.20;;;;;;4987119;28;20027;-55
2023/05/06 06:58:47;;;;;;;10.23;3.38;;;19.30;88.20;;;;;;4988991;28;20425;-54
2023/05/06 07:01:13;;;;;;;10.63;3.53;;;19.30;88.20;;;;;;4988835;28;20031;-54
2023/05/06 07:03:38;;;;;;;10.15;3.65;;;19.30;88.20;;;;;;5004202;28;20029;-54
2023/05/06 07:06:04;;;;;;;12.60;3.35;;;19.30;88.00;;;;;;4986766;28;20087;-53
2023/05/06 07:08:30;;;;;;;8.18;3.03;;;19.40;88.10;;;;;;4987936;28;20027;-54
2023/05/06 07:10:55;;;;;;;10.75;3.30;;;19.30;88.00;;;;;;4988543;28;20042;-55
2023/05/06 07:13:22;;;;;;;9.10;2.85;;;19.30;88.00;;;;;;4986678;28;20043;-54
2023/05/06 07:15:48;;;;;;;11.45;3.50;;;19.40;88.00;;;;;;4988012;28;20035;-54
2023/05/06 07:18:13;;;;;;;6.03;2.78;;;19.40;88.00;;;;;;4988556;28;20027;-54
2023/05/06 07:20:39;;;;;;;6.90;2.80;;;19.40;88.40;;;;;;4986613;28;20462;-54
2023/05/06 07:23:04;;;;;;;5.55;2.85;;;19.40;88.30;;;;;;4986476;28;20046;-54
2023/05/06 07:25:31;;;;;;;5.57;2.70;;;19.40;87.90;;;;;;4986437;28;20031;-54
2023/05/06 07:27:56;;;;;;;5.38;2.70;;;19.40;87.90;;;;;;4986225;28;20027;-54
2023/05/06 07:30:22;;;;;;;8.95;2.88;;;19.40;88.20;;;;;;4988539;28;20123;-54
2023/05/06 07:32:47;;;;;;;4.00;2.60;;;19.40;88.20;;;;;;4986218;28;20030;-54
2023/05/06 07:35:13;;;;;;;7.18;2.60;;;19.40;88.10;;;;;;4988105;28;20046;-54
2023/05/06 07:37:39;;;;;;;6.38;2.70;;;19.40;88.60;;;;;;4986334;28;20038;-54
2023/05/06 07:40:05;;;;;;;7.35;2.75;;;19.50;88.20;;;;;;4987772;28;20392;-54
2023/05/06 07:42:31;;;;;;;4.90;2.42;;;19.40;88.10;;;;;;4986719;28;20039;-54
2023/05/06 07:44:56;;;;;;;11.38;2.88;;;19.50;88.90;;;;;;4986970;28;20035;-54
2023/05/06 07:47:30;;;;;;;6.60;3.03;;;19.50;88.40;;;;;;4966631;28;20094;-54
2023/05/06 07:49:55;;;;;;;4.20;2.50;;;19.50;88.40;;;;;;4986231;28;20026;-54
2023/05/06 07:52:22;;;;;;;5.65;2.70;;;19.50;88.50;;;;;;4986474;28;20606;-54
2023/05/06 07:54:47;;;;;;;7.88;2.58;;;19.50;88.50;;;;;;4970650;28;20054;-54
2023/05/06 07:57:13;;;;;;;5.53;2.20;;;19.50;88.50;;;;;;4986174;28;20027;-54
2023/05/06 07:59:38;;;;;;;6.28;2.40;;;19.50;89.00;;;;;;4986154;28;20031;-54
2023/05/06 08:02:04;;;;;;;10.30;2.72;;;19.60;88.30;;;;;;4986140;28;20053;-54
2023/05/06 08:04:30;;;;;;;4.70;2.45;;;19.50;88.30;;;;;;4970632;28;20050;-54
2023/05/06 08:06:56;;;;;;;4.57;2.53;;;19.60;88.80;;;;;;4986398;28;20038;-54
2023/05/06 08:09:21;;;;;;;4.97;2.40;;;19.60;88.70;;;;;;4986147;28;20134;-54
2023/05/06 08:11:48;;;;;;;5.63;2.15;;;19.70;88.70;;;;;;4987067;28;20134;-54
2023/05/06 08:14:14;;;;;;;5.82;2.78;;;19.70;88.60;;;;;;4986240;28;20035;-54
2023/05/06 08:16:40;;;;;;;4.53;2.13;;;19.60;88.50;;;;;;4985661;28;20031;-54
2023/05/06 08:19:05;;;;;;;9.57;2.38;;;19.70;88.60;;;;;;4987429;28;20038;-54
2023/05/06 08:21:31;;;;;;;5.78;2.30;;;19.70;88.50;;;;;;4985291;28;20031;-54
2023/05/06 08:23:56;;;;;;;6.30;2.60;;;19.70;88.50;;;;;;4986152;28;20031;-54
2023/05/06 08:26:22;;;;;;;6.28;2.30;;;19.70;88.30;;;;;;4987055;28;20031;-54
2023/05/06 08:28:47;;;;;;;11.82;2.38;;;19.70;88.30;;;;;;4985731;28;20038;-54
2023/05/06 08:31:13;;;;;;;8.75;2.63;;;19.70;88.40;;;;;;4985852;28;20153;-54
2023/05/06 08:33:38;;;;;;;9.15;2.50;;;19.70;88.50;;;;;;4984794;28;20030;-54
2023/05/06 08:36:04;;;;;;;14.35;3.13;;;19.70;88.50;;;;;;4987176;28;20023;-55
2023/05/06 08:38:30;;;;;;;16.85;3.30;;;19.70;88.50;;;;;;4985518;28;20039;-54
2023/05/06 08:40:55;;;;;;;22.55;3.80;;;19.70;88.40;;;;;;4999739;28;20581;-54
2023/05/06 08:43:21;;;;;;;20.70;4.30;;;19.70;88.60;;;;;;4984874;28;20498;-54
2023/05/06 08:45:46;;;;;;;31.77;4.95;;;19.80;88.70;;;;;;4985501;28;20484;-54
2023/05/06 08:48:12;;;;;;;42.38;5.60;;;19.80;88.80;;;;;;4984575;28;20026;-54
2023/05/06 08:50:41;;;;;;;37.47;5.63;;;19.80;89.00;;;;;;4984626;28;20046;-54
2023/05/06 08:53:16;;;;;;;31.02;4.57;;;19.80;89.00;;;;;;4985115;28;20031;-54
2023/05/06 08:55:42;;;;;;;58.70;6.67;;;19.80;89.00;;;;;;4986079;28;20214;-54
2023/05/06 08:58:08;;;;;;;41.45;5.90;;;19.80;89.00;;;;;;4984580;28;20039;-54
2023/05/06 09:00:34;;;;;;;31.55;5.70;;;19.80;89.10;;;;;;4967543;28;20117;-54
2023/05/06 09:03:00;;;;;;;65.63;8.98;;;19.90;89.20;;;;;;4969171;28;20153;-54
2023/05/06 09:05:27;;;;;;;52.03;8.82;;;19.90;89.50;;;;;;4984959;28;20122;-54
2023/05/06 09:07:52;;;;;;;93.57;11.55;;;19.90;89.50;;;;;;5000882;28;20023;-54
2023/05/06 09:10:18;;;;;;;84.68;9.18;;;19.90;89.50;;;;;;4984998;28;20053;-54
2023/05/06 09:12:44;;;;;;;63.15;9.27;;;20.00;89.40;;;;;;4968369;28;20043;-54
2023/05/06 09:15:10;;;;;;;61.22;8.65;;;20.00;89.10;;;;;;4985982;28;20035;-54
2023/05/06 09:17:35;;;;;;;81.22;9.32;;;20.00;88.70;;;;;;4968499;28;20039;-54
2023/05/06 09:20:01;;;;;;;49.20;7.95;;;20.00;88.60;;;;;;4983873;28;20070;-54
2023/05/06 09:22:28;;;;;;;70.50;8.48;;;20.10;88.60;;;;;;4984471;28;20030;-55
2023/05/06 09:24:57;;;;;;;61.28;8.00;;;20.10;88.50;;;;;;4983092;28;20054;-54
2023/05/06 09:27:33;;;;;;;79.28;9.20;;;20.10;88.20;;;;;;4983637;28;20030;-54
2023/05/06 09:30:10;;;;;;;62.97;9.32;;;20.10;88.10;;;;;;4984570;28;20098;-54
2023/05/06 09:32:36;;;;;;;179.95;16.42;;;20.20;88.00;;;;;;4983201;28;20109;-54
2023/05/06 09:35:01;;;;;;;91.20;11.48;;;20.20;88.20;;;;;;5017292;28;20043;-54
2023/05/06 09:37:27;;;;;;;134.65;13.57;;;20.20;87.90;;;;;;4983619;28;20030;-54
2023/05/06 09:39:54;;;;;;;94.88;10.82;;;20.20;87.90;;;;;;4982456;28;20031;-54
2023/05/06 09:42:24;;;;;;;141.18;16.38;;;20.30;87.80;;;;;;4971184;28;20030;-54
2023/05/06 09:44:57;;;;;;;166.20;18.33;;;20.30;87.90;;;;;;4975523;28;20067;-54
2023/05/06 09:47:23;;;;;;;103.65;15.73;;;20.30;87.60;;;;;;4978843;28;20031;-54
2023/05/06 09:49:48;;;;;;;124.13;13.85;;;20.30;87.50;;;;;;4983174;28;20499;-54
2023/05/06 09:52:14;;;;;;;124.32;14.45;;;20.40;87.30;;;;;;4983400;28;20027;-54
2023/05/06 09:54:40;;;;;;;104.82;13.82;;;20.40;87.20;;;;;;4992241;28;20538;-54
2023/05/06 09:57:05;;;;;;;110.93;15.15;;;20.50;87.40;;;;;;4993914;28;20026;-54
2023/05/06 09:59:31;;;;;;;146.25;16.27;;;20.50;86.90;;;;;;4984340;28;20078;-54
2023/05/06 10:01:58;;;;;;;133.43;15.57;;;20.50;86.90;;;;;;4988816;28;20033;-54
2023/05/06 10:04:24;;;;;;;142.48;16.48;;;20.60;86.60;;;;;;4984640;28;20026;-54
2023/05/06 10:06:50;;;;;;;163.00;18.90;;;20.60;86.60;;;;;;4982827;28;20023;-54
2023/05/06 10:09:16;;;;;;;151.27;18.25;;;20.60;87.20;;;;;;4982058;28;20044;-54
2023/05/06 10:11:41;;;;;;;113.25;13.73;;;20.60;86.50;;;;;;4993334;28;20148;-54
2023/05/06 10:14:08;;;;;;;113.05;14.38;;;20.70;86.40;;;;;;4982029;28;20392;-54
2023/05/06 10:16:36;;;;;;;103.72;14.73;;;20.70;86.20;;;;;;4989585;28;20027;-54
2023/05/06 10:19:02;;;;;;;115.68;14.10;;;20.70;86.00;;;;;;4988100;28;20042;-54
2023/05/06 10:21:28;;;;;;;148.55;18.02;;;20.70;86.00;;;;;;5007413;28;20027;-54
2023/05/06 10:23:59;;;;;;;118.75;15.07;;;20.70;85.60;;;;;;4988894;28;20110;-54
2023/05/06 10:26:25;;;;;;;89.03;13.20;;;20.70;85.10;;;;;;4994234;28;20038;-54
2023/05/06 10:28:51;;;;;;;107.95;14.50;;;20.80;85.00;;;;;;4984358;28;20105;-53
2023/05/06 10:31:17;;;;;;;114.97;14.30;;;20.80;84.90;;;;;;4966285;28;20034;-54
2023/05/06 10:33:45;;;;;;;119.15;15.48;;;20.80;84.70;;;;;;4992557;28;20026;-54
2023/05/06 10:36:19;;;;;;;117.53;16.67;;;20.90;84.70;;;;;;4998271;28;20041;-54
2023/05/06 10:38:48;;;;;;;117.82;15.23;;;20.90;84.70;;;;;;4999144;28;20046;-54
2023/05/06 10:41:13;;;;;;;105.22;15.25;;;21.00;84.30;;;;;;4993402;28;20023;-54
2023/05/06 10:43:40;;;;;;;120.22;15.95;;;21.00;83.80;;;;;;4999130;28;20043;-53
2023/05/06 10:46:16;;;;;;;105.80;15.02;;;21.00;83.80;;;;;;4967221;28;20035;-54
2023/05/06 10:49:03;;;;;;;112.03;14.35;;;21.00;83.70;;;;;;5018006;28;20046;-54
2023/05/06 10:51:38;;;;;;;88.57;11.50;;;21.10;83.00;;;;;;4985959;28;20031;-54
2023/05/06 10:54:07;;;;;;;98.45;13.13;;;21.10;82.40;;;;;;4961361;28;20166;-54
2023/05/06 10:56:34;;;;;;;97.75;13.95;;;21.20;82.20;;;;;;4986110;28;20035;-54
2023/05/06 10:59:10;;;;;;;110.15;12.25;;;21.20;82.20;;;;;;5001861;28;20030;-54
2023/05/06 11:01:39;;;;;;;93.50;12.32;;;21.20;81.90;;;;;;5002243;28;20110;-54
2023/05/06 11:04:17;;;;;;;89.78;11.60;;;21.20;81.60;;;;;;4981254;28;20019;-54
2023/05/06 11:06:45;;;;;;;108.85;12.75;;;21.30;81.40;;;;;;4980848;28;20514;-54
2023/05/06 11:09:25;;;;;;;101.03;11.20;;;21.40;81.50;;;;;;4981626;28;20067;-54
2023/05/06 11:12:03;;;;;;;88.65;11.32;;;21.40;81.00;;;;;;4985779;28;20049;-54
2023/05/06 11:14:29;;;;;;;108.43;13.73;;;21.50;80.60;;;;;;4987078;28;20053;-54
2023/05/06 11:16:56;;;;;;;69.97;10.93;;;21.50;80.40;;;;;;4987449;28;20091;-54
2023/05/06 11:19:29;;;;;;;89.22;12.10;;;21.60;80.40;;;;;;4975869;28;20019;-54
2023/05/06 11:21:56;;;;;;;69.60;9.55;;;21.70;79.70;;;;;;4986724;28;20034;-54
2023/05/06 11:24:28;;;;;;;78.85;9.93;;;21.80;79.00;;;;;;4986929;28;20043;-54
2023/05/06 11:26:58;;;;;;;92.68;12.02;;;21.90;78.80;;;;;;4986434;28;20031;-53
2023/05/06 11:29:24;;;;;;;88.93;9.95;;;21.90;78.60;;;;;;4985977;28;20046;-54
2023/05/06 11:31:49;;;;;;;79.63;10.88;;;22.00;78.60;;;;;;4985052;28;20090;-54
2023/05/06 11:34:20;;;;;;;86.53;10.70;;;22.00;78.50;;;;;;4988349;28;20026;-54
2023/05/06 11:36:48;;;;;;;107.90;12.32;;;22.10;78.60;;;;;;4985925;28;20039;-54
2023/05/06 11:39:14;;;;;;;77.60;10.27;;;22.20;78.40;;;;;;5016428;28;20037;-54
2023/05/06 11:41:40;;;;;;;92.30;11.10;;;22.20;78.00;;;;;;4996229;28;20026;-54
2023/05/06 11:44:05;;;;;;;134.13;14.77;;;22.20;78.00;;;;;;4986051;28;20025;-54
2023/05/06 11:46:32;;;;;;;182.57;17.23;;;22.30;78.00;;;;;;4990651;28;20037;-54
2023/05/06 11:48:57;;;;;;;119.53;12.48;;;22.40;77.70;;;;;;4982151;28;20121;-54
2023/05/06 11:51:23;;;;;;;109.90;12.98;;;22.30;77.20;;;;;;4988363;28;20058;-53
2023/05/06 11:53:48;;;;;;;157.98;19.83;;;22.40;77.10;;;;;;4999667;28;20041;-54
2023/05/06 11:56:14;;;;;;;129.20;14.65;;;22.40;76.80;;;;;;4985840;28;20448;-54
2023/05/06 11:58:40;;;;;;;123.70;13.15;;;22.50;76.50;;;;;;4981536;28;20061;-54
2023/05/06 12:01:05;;;;;;;112.30;12.70;;;22.50;76.30;;;;;;4984707;28;20513;-53
2023/05/06 12:03:31;;;;;;;176.95;14.77;;;22.50;75.90;;;;;;4983583;28;20043;-54
2023/05/06 12:05:57;;;;;;;146.70;15.07;;;22.60;75.50;;;;;;4981719;28;20039;-54
2023/05/06 12:08:25;;;;;;;126.55;13.23;;;22.60;75.60;;;;;;4983531;28;20149;-53
2023/05/06 12:10:50;;;;;;;140.10;15.20;;;22.70;75.50;;;;;;4964652;28;20031;-54
2023/05/06 12:13:16;;;;;;;122.80;11.82;;;22.70;75.80;;;;;;4996499;28;20057;-54
2023/05/06 12:15:42;;;;;;;97.32;11.10;;;22.80;75.20;;;;;;4978644;28;20035;-54
2023/05/06 12:18:07;;;;;;;123.10;11.90;;;22.80;74.70;;;;;;4982649;28;20031;-54
2023/05/06 12:20:33;;;;;;;87.03;10.90;;;22.90;74.60;;;;;;4983009;28;20030;-54
2023/05/06 12:23:12;;;;;;;101.68;11.90;;;22.90;74.20;;;;;;4986308;28;20034;-53
2023/05/06 12:25:38;;;;;;;80.32;10.50;;;22.90;73.50;;;;;;4985872;28;20042;-54
2023/05/06 12:28:17;;;;;;;133.93;15.13;;;22.90;73.60;;;;;;4968775;28;20026;-54
2023/05/06 12:30:43;;;;;;;141.45;14.80;;;22.90;73.80;;;;;;4990810;28;20047;-54